Time;durP1;ratioP1;P1;durP2;ratioP2;P2;SDS_P1;SDS_P2;PMS_P1;PMS_P2;Temp;Humidity;BMP_temperature;BMP_pressure;BME280_temperature;BME280_humidity;BME280_pressure;Samples;Min_cycle;Max_cycle;Signal;HPM_P1;HPM_P2
2021/06/13 00:00:28;;;;;;;3.88;2.00;;;23.20;96.80;;;;;;4968723;28;20090;-82
2021/06/13 00:02:54;;;;;;;3.45;1.85;;;23.10;97.00;;;;;;4959717;28;20037;-82
2021/06/13 00:05:19;;;;;;;2.90;1.50;;;23.20;96.70;;;;;;4974893;28;20127;-82
2021/06/13 00:07:45;;;;;;;3.25;1.73;;;23.20;96.60;;;;;;4968850;28;20412;-82
2021/06/13 00:10:14;;;;;;;2.55;2.10;;;23.20;96.80;;;;;;4972504;28;20117;-82
2021/06/13 00:12:40;;;;;;;4.43;2.00;;;23.20;96.70;;;;;;4974727;28;20029;-82
2021/06/13 00:15:10;;;;;;;3.85;1.90;;;23.20;96.70;;;;;;4978657;28;20038;-82
2021/06/13 00:17:36;;;;;;;5.88;2.08;;;23.10;96.60;;;;;;4975056;28;20058;-82
2021/06/13 00:20:06;;;;;;;4.53;1.70;;;23.00;97.00;;;;;;4975189;28;20573;-82
2021/06/13 00:22:32;;;;;;;3.63;1.60;;;23.00;96.90;;;;;;4980219;28;20062;-82
2021/06/13 00:24:57;;;;;;;4.10;1.90;;;23.00;96.80;;;;;;4971944;28;20488;-82
2021/06/13 00:27:23;;;;;;;3.95;1.88;;;22.90;97.00;;;;;;4973380;28;20499;-82
2021/06/13 00:29:48;;;;;;;4.38;1.85;;;22.90;97.00;;;;;;4976119;28;20398;-82
2021/06/13 00:32:14;;;;;;;2.65;2.00;;;22.90;97.10;;;;;;4975486;28;20262;-82
2021/06/13 00:34:40;;;;;;;3.28;2.00;;;22.80;96.90;;;;;;4978526;28;20034;-82
2021/06/13 00:37:07;;;;;;;2.72;2.03;;;22.90;97.10;;;;;;4983746;28;20097;-82
2021/06/13 00:39:33;;;;;;;7.22;2.00;;;22.80;97.20;;;;;;4976325;28;20030;-82
2021/06/13 00:41:58;;;;;;;2.10;1.42;;;22.70;97.60;;;;;;4979614;28;20031;-82
2021/06/13 00:44:24;;;;;;;3.15;1.80;;;22.70;97.50;;;;;;4975783;28;20026;-82
2021/06/13 00:46:50;;;;;;;1.75;1.52;;;22.60;97.50;;;;;;4976673;28;20050;-82
2021/06/13 00:49:15;;;;;;;2.47;1.90;;;22.70;97.50;;;;;;4973505;28;20035;-82
2021/06/13 00:51:41;;;;;;;2.30;1.60;;;22.60;97.20;;;;;;4975744;28;20105;-86
2021/06/13 00:54:07;;;;;;;2.85;1.85;;;22.50;97.50;;;;;;4976118;28;20376;-82
2021/06/13 00:56:33;;;;;;;2.10;1.75;;;22.50;97.40;;;;;;4980840;28;20031;-82
2021/06/13 00:59:01;;;;;;;1.60;1.33;;;22.50;97.50;;;;;;4973747;28;20389;-82
2021/06/13 01:01:27;;;;;;;7.80;1.85;;;22.50;97.40;;;;;;4990796;28;20039;-82
2021/06/13 01:03:53;;;;;;;2.22;1.60;;;22.40;97.10;;;;;;4972368;28;20526;-82
2021/06/13 01:06:27;;;;;;;3.13;1.70;;;22.40;97.30;;;;;;4975123;28;20034;-82
2021/06/13 01:08:59;;;;;;;2.53;1.67;;;22.40;97.00;;;;;;4972743;28;20101;-83
2021/06/13 01:11:40;;;;;;;2.45;1.63;;;22.40;97.10;;;;;;4979219;28;20050;-82
2021/06/13 01:14:31;;;;;;;4.57;1.88;;;22.40;97.20;;;;;;4970367;28;20302;-82
2021/06/13 01:16:57;;;;;;;3.70;1.77;;;22.40;97.50;;;;;;4982093;28;20503;-82
2021/06/13 01:19:22;;;;;;;1.90;1.73;;;22.30;97.20;;;;;;4975997;28;20097;-82
2021/06/13 01:22:13;;;;;;;4.55;1.60;;;22.30;97.10;;;;;;4972213;28;20034;-82
2021/06/13 01:25:01;;;;;;;2.60;1.90;;;22.30;96.70;;;;;;4974259;28;20403;-82
2021/06/13 01:27:42;;;;;;;2.53;1.75;;;22.30;96.90;;;;;;4955025;28;20627;-82
2021/06/13 01:30:08;;;;;;;5.20;1.77;;;22.30;97.10;;;;;;4973868;28;20096;-82
2021/06/13 01:32:34;;;;;;;3.20;1.70;;;22.20;96.90;;;;;;4974941;28;20022;-83
2021/06/13 01:35:10;;;;;;;4.95;1.33;;;22.20;96.90;;;;;;4974222;28;20033;-83
2021/06/13 01:37:39;;;;;;;3.72;1.50;;;22.20;96.80;;;;;;4975553;28;20023;-82
2021/06/13 01:40:11;;;;;;;3.75;1.52;;;22.10;96.90;;;;;;4974353;28;20394;-83
2021/06/13 01:42:40;;;;;;;4.35;1.75;;;22.20;96.70;;;;;;4970886;28;20054;-82
2021/06/13 01:45:09;;;;;;;3.97;1.40;;;22.20;96.80;;;;;;4973515;28;20039;-82
2021/06/13 01:47:37;;;;;;;2.58;1.58;;;22.10;96.90;;;;;;4972351;28;20406;-82
2021/06/13 01:50:05;;;;;;;3.70;1.63;;;22.10;96.90;;;;;;4992395;28;20045;-82
2021/06/13 01:52:34;;;;;;;3.25;1.63;;;22.10;96.90;;;;;;4982794;28;20033;-83
2021/06/13 01:55:01;;;;;;;1.88;1.50;;;22.00;97.10;;;;;;4983423;28;20041;-82
2021/06/13 01:57:28;;;;;;;1.67;1.48;;;22.00;97.00;;;;;;4989294;28;20078;-82
2021/06/13 01:59:56;;;;;;;1.88;1.58;;;22.00;97.40;;;;;;4984280;28;20030;-82
2021/06/13 02:02:23;;;;;;;2.92;1.50;;;21.90;97.40;;;;;;4977916;28;20025;-83
2021/06/13 02:04:49;;;;;;;2.03;1.58;;;21.90;97.90;;;;;;4979388;28;20031;-82
2021/06/13 02:07:18;;;;;;;5.78;1.80;;;21.90;97.60;;;;;;4980981;28;20030;-82
2021/06/13 02:09:46;;;;;;;1.95;1.73;;;21.90;97.60;;;;;;4974134;28;20427;-82
2021/06/13 02:12:13;;;;;;;3.47;1.63;;;21.90;97.80;;;;;;4971740;28;20015;-83
2021/06/13 02:14:42;;;;;;;2.13;1.42;;;21.80;97.90;;;;;;4972542;28;20049;-82
2021/06/13 02:17:09;;;;;;;2.17;1.85;;;21.70;98.00;;;;;;4970534;28;20051;-82
2021/06/13 02:19:36;;;;;;;2.30;2.10;;;21.70;98.00;;;;;;4972845;28;20407;-83
2021/06/13 02:22:02;;;;;;;4.28;1.90;;;21.70;98.10;;;;;;4972426;28;20048;-83
2021/06/13 02:24:31;;;;;;;2.83;1.90;;;21.60;98.00;;;;;;4971774;28;20506;-82
2021/06/13 02:27:00;;;;;;;3.03;2.00;;;21.60;98.40;;;;;;4977954;28;20034;-82
2021/06/13 02:29:27;;;;;;;3.15;2.00;;;21.60;98.40;;;;;;4973254;28;20045;-82
2021/06/13 02:31:55;;;;;;;4.35;1.65;;;21.60;98.50;;;;;;4970481;28;20035;-83
2021/06/13 02:34:23;;;;;;;2.60;1.67;;;21.60;98.50;;;;;;4970915;28;20054;-83
2021/06/13 02:36:52;;;;;;;3.10;1.77;;;21.50;98.50;;;;;;4975681;28;20030;-82
2021/06/13 02:39:22;;;;;;;3.42;1.65;;;21.50;98.70;;;;;;4973603;28;20021;-82
2021/06/13 02:41:49;;;;;;;2.03;1.50;;;21.50;98.70;;;;;;4971737;28;20035;-83
2021/06/13 02:44:16;;;;;;;2.40;1.80;;;21.40;98.70;;;;;;4971568;28;20081;-83
2021/06/13 02:46:42;;;;;;;4.75;2.00;;;21.40;98.90;;;;;;4973867;28;20139;-82
2021/06/13 02:49:09;;;;;;;2.75;1.95;;;21.40;98.80;;;;;;4973219;28;20091;-82
2021/06/13 02:51:49;;;;;;;3.03;2.00;;;21.40;98.90;;;;;;4967000;28;20066;-82
2021/06/13 02:54:15;;;;;;;2.17;1.80;;;21.30;98.80;;;;;;4973785;28;20032;-82
2021/06/13 02:56:53;;;;;;;3.13;2.05;;;21.40;98.70;;;;;;4974273;28;20451;-82
2021/06/13 02:59:43;;;;;;;2.33;1.90;;;21.30;98.80;;;;;;4973579;28;20050;-82
2021/06/13 03:02:12;;;;;;;3.03;1.98;;;21.30;98.80;;;;;;4968888;28;20047;-83
2021/06/13 03:04:41;;;;;;;2.65;1.90;;;21.30;99.00;;;;;;4972190;28;20038;-82
2021/06/13 03:07:10;;;;;;;4.10;2.10;;;21.20;99.10;;;;;;4969671;28;20102;-83
2021/06/13 03:09:36;;;;;;;2.38;1.90;;;21.20;99.20;;;;;;4967032;28;20113;-82
2021/06/13 03:12:03;;;;;;;3.83;2.05;;;21.20;99.10;;;;;;4972343;28;20019;-83
2021/06/13 03:14:32;;;;;;;2.58;2.10;;;21.30;99.30;;;;;;4972054;28;20531;-82
2021/06/13 03:16:59;;;;;;;1.83;1.60;;;21.20;99.10;;;;;;4972425;28;20070;-83
2021/06/13 03:19:29;;;;;;;2.97;2.10;;;21.20;99.30;;;;;;4973485;28;20479;-83
2021/06/13 03:21:57;;;;;;;4.93;1.73;;;21.20;99.30;;;;;;4974298;28;20038;-82
2021/06/13 03:24:24;;;;;;;3.50;1.83;;;21.10;99.40;;;;;;4973944;28;20030;-82
2021/06/13 03:26:53;;;;;;;2.00;1.80;;;21.10;99.50;;;;;;4974687;28;20057;-83
2021/06/13 03:29:19;;;;;;;2.22;1.60;;;21.10;99.50;;;;;;4970941;28;20586;-82
2021/06/13 03:31:47;;;;;;;6.13;1.90;;;21.10;99.70;;;;;;4977835;28;20575;-82
2021/06/13 03:34:13;;;;;;;6.38;2.03;;;21.10;99.80;;;;;;4971862;28;20030;-83
2021/06/13 03:36:41;;;;;;;1.67;1.42;;;21.10;99.80;;;;;;4971914;28;20058;-82
2021/06/13 03:39:07;;;;;;;3.83;1.65;;;21.00;99.80;;;;;;4972402;28;20430;-83
2021/06/13 03:41:34;;;;;;;2.67;1.63;;;21.00;99.80;;;;;;4976282;28;20027;-82
2021/06/13 03:44:00;;;;;;;2.15;1.60;;;21.00;99.90;;;;;;4986064;28;21083;-82
2021/06/13 03:46:26;;;;;;;3.28;1.95;;;21.00;99.80;;;;;;4978853;28;20439;-82
2021/06/13 03:48:54;;;;;;;4.57;1.70;;;21.00;99.90;;;;;;4973700;28;20101;-82
2021/06/13 03:51:21;;;;;;;3.97;1.80;;;20.90;99.90;;;;;;4965957;28;20022;-82
2021/06/13 03:53:47;;;;;;;3.40;1.70;;;21.00;99.90;;;;;;4969269;28;20039;-83
2021/06/13 03:56:17;;;;;;;2.25;1.77;;;20.90;99.90;;;;;;4972746;28;20030;-82
2021/06/13 03:58:44;;;;;;;1.88;1.42;;;20.90;99.90;;;;;;4969594;28;20058;-83
2021/06/13 04:01:15;;;;;;;2.33;1.98;;;21.00;99.90;;;;;;4974413;28;20026;-82
2021/06/13 04:03:42;;;;;;;3.75;1.60;;;21.00;99.90;;;;;;4972248;28;20041;-83
2021/06/13 04:06:08;;;;;;;3.35;1.73;;;20.90;99.90;;;;;;4978212;28;20050;-83
2021/06/13 04:08:38;;;;;;;2.80;1.80;;;20.90;99.90;;;;;;4973708;28;20035;-82
2021/06/13 04:11:05;;;;;;;3.17;1.88;;;21.00;99.90;;;;;;4982514;28;20026;-83
2021/06/13 04:13:33;;;;;;;3.40;1.80;;;21.00;99.90;;;;;;4973473;28;20309;-82
2021/06/13 04:16:03;;;;;;;3.17;1.77;;;20.90;99.90;;;;;;4977513;28;20538;-82
2021/06/13 04:18:29;;;;;;;2.55;2.05;;;20.90;99.90;;;;;;4973375;28;20049;-82
2021/06/13 04:20:55;;;;;;;2.80;2.20;;;20.90;99.90;;;;;;4987970;28;20508;-83
2021/06/13 04:23:22;;;;;;;2.85;1.83;;;20.90;99.90;;;;;;4977121;28;20109;-82
2021/06/13 04:25:48;;;;;;;2.40;1.75;;;20.80;99.90;;;;;;4976502;28;20030;-82
2021/06/13 04:28:15;;;;;;;5.97;2.05;;;20.80;99.90;;;;;;4973767;28;20035;-82
2021/06/13 04:30:45;;;;;;;3.30;1.88;;;20.80;99.90;;;;;;4974232;28;20096;-82
2021/06/13 04:33:11;;;;;;;2.78;1.73;;;20.80;99.90;;;;;;4988515;28;20023;-82
2021/06/13 04:35:37;;;;;;;2.63;1.80;;;20.80;99.90;;;;;;4978292;28;20538;-83
2021/06/13 04:38:02;;;;;;;5.00;2.03;;;20.80;99.90;;;;;;4981322;28;20023;-83
2021/06/13 04:40:28;;;;;;;3.13;1.73;;;20.90;99.90;;;;;;4977239;28;20022;-82
2021/06/13 04:42:54;;;;;;;2.78;1.85;;;20.90;99.90;;;;;;4973778;28;20110;-82
2021/06/13 04:45:19;;;;;;;3.38;2.10;;;20.80;99.90;;;;;;4979415;28;20026;-83
2021/06/13 04:47:45;;;;;;;2.38;1.92;;;20.80;99.90;;;;;;4972976;28;20113;-82
2021/06/13 04:50:11;;;;;;;4.00;1.80;;;20.80;99.90;;;;;;4977399;28;20472;-83
2021/06/13 04:52:39;;;;;;;2.55;2.15;;;20.80;99.90;;;;;;4973802;28;20046;-75
2021/06/13 04:55:18;;;;;;;3.72;2.50;;;20.70;99.90;;;;;;4975032;28;20443;-75
2021/06/13 04:57:46;;;;;;;2.92;1.90;;;20.70;99.90;;;;;;4973120;28;20050;-74
2021/06/13 05:00:12;;;;;;;1.92;1.77;;;20.80;99.90;;;;;;4973127;28;20038;-75
2021/06/13 05:02:39;;;;;;;4.43;1.80;;;20.80;99.90;;;;;;4971936;28;20514;-75
2021/06/13 05:05:05;;;;;;;2.67;1.80;;;20.90;99.90;;;;;;4978227;28;20042;-75
2021/06/13 05:07:34;;;;;;;4.55;1.80;;;20.90;99.90;;;;;;4974401;28;20070;-79
2021/06/13 05:10:00;;;;;;;4.65;1.88;;;21.00;99.90;;;;;;4975157;28;20031;-75
2021/06/13 05:12:26;;;;;;;2.92;1.75;;;21.00;99.90;;;;;;4979193;28;20019;-74
2021/06/13 05:14:51;;;;;;;2.58;1.83;;;21.00;99.90;;;;;;4972189;28;20041;-75
2021/06/13 05:17:17;;;;;;;4.93;1.95;;;21.00;99.90;;;;;;4971753;28;20057;-75
2021/06/13 05:19:42;;;;;;;2.50;1.98;;;21.10;99.90;;;;;;4974446;28;20041;-75
2021/06/13 05:22:09;;;;;;;3.97;1.63;;;21.10;99.90;;;;;;4971426;28;20027;-74
2021/06/13 05:24:35;;;;;;;4.55;1.90;;;21.20;99.90;;;;;;4972821;28;20050;-75
2021/06/13 05:27:02;;;;;;;4.30;1.77;;;21.10;99.90;;;;;;4973032;28;20027;-81
2021/06/13 05:29:30;;;;;;;3.58;1.90;;;21.20;99.90;;;;;;4974354;28;20047;-75
2021/06/13 05:31:56;;;;;;;2.85;1.60;;;21.20;99.90;;;;;;4980200;28;20089;-76
2021/06/13 05:34:21;;;;;;;1.92;1.67;;;21.20;99.90;;;;;;4975149;28;20022;-75
2021/06/13 05:36:47;;;;;;;6.50;1.92;;;21.10;99.90;;;;;;4975687;28;20030;-76
2021/06/13 05:39:13;;;;;;;2.75;1.75;;;21.30;99.90;;;;;;4975092;28;20062;-76
2021/06/13 05:41:38;;;;;;;2.67;1.60;;;21.20;99.90;;;;;;4979307;28;20395;-75
2021/06/13 05:44:04;;;;;;;2.75;1.67;;;21.30;99.90;;;;;;4976206;28;20048;-76
2021/06/13 05:46:30;;;;;;;4.57;1.95;;;21.30;99.90;;;;;;4992928;28;20081;-76
2021/06/13 05:48:57;;;;;;;3.55;1.92;;;21.40;99.90;;;;;;4986868;28;20034;-76
2021/06/13 05:51:23;;;;;;;3.00;2.20;;;21.40;99.90;;;;;;4973716;28;20019;-76
2021/06/13 05:53:49;;;;;;;2.63;1.60;;;21.40;99.90;;;;;;4978917;28;20034;-76
2021/06/13 05:56:14;;;;;;;3.22;2.35;;;21.50;99.90;;;;;;4975841;28;20015;-75
2021/06/13 05:58:41;;;;;;;3.05;2.10;;;21.50;99.90;;;;;;4972185;28;20050;-76
2021/06/13 06:01:06;;;;;;;3.83;1.80;;;21.50;99.90;;;;;;4981293;28;20026;-76
2021/06/13 06:03:32;;;;;;;2.72;1.80;;;21.50;99.90;;;;;;4971457;28;20026;-76
2021/06/13 06:05:58;;;;;;;2.67;2.10;;;21.50;99.90;;;;;;4975647;28;20031;-75
2021/06/13 06:08:26;;;;;;;2.75;2.00;;;21.60;99.90;;;;;;4971092;28;20107;-75
2021/06/13 06:10:52;;;;;;;7.60;2.20;;;21.50;99.90;;;;;;4974970;28;20034;-75
2021/06/13 06:13:18;;;;;;;5.05;2.30;;;21.60;99.90;;;;;;4978901;28;20444;-75
2021/06/13 06:15:44;;;;;;;3.85;2.10;;;21.70;99.90;;;;;;4977230;28;20038;-75
2021/06/13 06:18:09;;;;;;;2.88;1.85;;;21.70;99.90;;;;;;4984420;28;20514;-75
2021/06/13 06:20:36;;;;;;;3.40;1.90;;;21.80;99.90;;;;;;4970355;28;20531;-75
2021/06/13 06:23:02;;;;;;;2.50;1.92;;;21.80;99.90;;;;;;4969661;28;20019;-75
2021/06/13 06:25:28;;;;;;;2.65;1.92;;;21.90;99.90;;;;;;4979252;28;20438;-75
2021/06/13 06:27:54;;;;;;;3.03;2.10;;;22.00;99.90;;;;;;4973081;28;20031;-75
2021/06/13 06:30:21;;;;;;;2.75;1.95;;;22.10;99.90;;;;;;4977233;28;20398;-75
2021/06/13 06:32:47;;;;;;;2.22;1.80;;;22.10;99.90;;;;;;4975061;28;20015;-75
2021/06/13 06:35:14;;;;;;;4.63;2.30;;;22.20;99.90;;;;;;4976790;28;20034;-75
2021/06/13 06:37:41;;;;;;;3.42;1.70;;;22.20;99.90;;;;;;4974815;28;20030;-75
2021/06/13 06:40:09;;;;;;;3.58;2.30;;;22.20;99.90;;;;;;4972944;28;20034;-74
2021/06/13 06:42:35;;;;;;;2.70;1.80;;;22.30;99.90;;;;;;4970619;28;20077;-75
2021/06/13 06:45:01;;;;;;;4.30;2.00;;;22.30;99.90;;;;;;4971283;28;20030;-76
2021/06/13 06:47:27;;;;;;;2.92;1.92;;;22.40;99.90;;;;;;4970768;28;20030;-76
2021/06/13 06:49:53;;;;;;;2.78;1.95;;;22.50;99.90;;;;;;4971299;28;20034;-75
2021/06/13 06:52:18;;;;;;;2.95;1.90;;;22.50;99.90;;;;;;4978225;28;20392;-75
2021/06/13 06:54:45;;;;;;;3.20;1.98;;;22.60;99.90;;;;;;4972505;28;20030;-76
2021/06/13 06:57:10;;;;;;;3.38;1.98;;;22.70;99.90;;;;;;4971353;28;20174;-76
2021/06/13 06:59:37;;;;;;;3.30;1.83;;;22.80;99.90;;;;;;4969981;28;20517;-77
2021/06/13 07:02:03;;;;;;;3.20;1.88;;;22.90;99.90;;;;;;4985842;28;20027;-76
2021/06/13 07:04:29;;;;;;;4.20;1.73;;;23.00;99.90;;;;;;4971747;28;20084;-75
2021/06/13 07:06:54;;;;;;;2.35;2.08;;;23.10;99.90;;;;;;4971750;28;20396;-76
2021/06/13 07:09:20;;;;;;;2.78;2.17;;;23.10;99.90;;;;;;4968185;28;20042;-75
2021/06/13 07:11:46;;;;;;;2.58;1.80;;;23.20;99.90;;;;;;4972398;28;20022;-76
2021/06/13 07:14:11;;;;;;;3.40;2.28;;;23.20;99.90;;;;;;4972955;28;20423;-76
2021/06/13 07:16:37;;;;;;;3.58;2.10;;;23.30;99.90;;;;;;4978397;28;20051;-76
2021/06/13 07:19:03;;;;;;;3.78;2.10;;;23.40;99.90;;;;;;4969557;28;20748;-76
2021/06/13 07:21:29;;;;;;;4.00;1.77;;;23.50;99.90;;;;;;4969815;28;20481;-76
2021/06/13 07:23:54;;;;;;;3.33;1.83;;;23.60;99.90;;;;;;4969398;28;20038;-76
2021/06/13 07:26:20;;;;;;;4.07;2.08;;;23.70;99.90;;;;;;4978089;28;20023;-76
2021/06/13 07:28:46;;;;;;;2.33;1.80;;;23.70;99.90;;;;;;4968019;28;20520;-75
2021/06/13 07:31:12;;;;;;;3.67;2.05;;;23.80;99.90;;;;;;4979485;28;20399;-76
2021/06/13 07:33:37;;;;;;;3.45;2.05;;;23.90;99.90;;;;;;4968543;28;20081;-76
2021/06/13 07:36:05;;;;;;;2.67;2.00;;;24.00;99.80;;;;;;4974045;28;20026;-76
2021/06/13 07:38:31;;;;;;;2.22;1.80;;;24.00;99.20;;;;;;4974338;28;20070;-76
2021/06/13 07:40:57;;;;;;;3.28;2.00;;;24.10;99.20;;;;;;4977596;28;20631;-76
2021/06/13 07:43:23;;;;;;;3.80;1.92;;;24.20;99.10;;;;;;4992079;28;20181;-75
2021/06/13 07:45:48;;;;;;;3.67;2.03;;;24.30;98.70;;;;;;4976488;28;20031;-75
2021/06/13 07:48:14;;;;;;;2.05;1.85;;;24.40;98.60;;;;;;4977520;28;20031;-75
2021/06/13 07:50:41;;;;;;;1.95;1.80;;;24.40;98.40;;;;;;4983956;28;20042;-75
2021/06/13 07:53:08;;;;;;;2.92;2.10;;;24.50;98.30;;;;;;4975736;28;20090;-75
2021/06/13 07:55:34;;;;;;;4.55;1.88;;;24.60;98.50;;;;;;4977056;28;20050;-75
2021/06/13 07:58:00;;;;;;;3.80;1.75;;;24.70;98.10;;;;;;4979239;28;20297;-75
2021/06/13 08:00:25;;;;;;;3.50;1.95;;;24.70;98.20;;;;;;4969633;28;20077;-75
2021/06/13 08:02:53;;;;;;;3.42;2.30;;;24.80;97.80;;;;;;4974556;28;20547;-76
2021/06/13 08:05:28;;;;;;;3.20;2.20;;;24.90;97.50;;;;;;4991793;28;20050;-75
2021/06/13 08:07:59;;;;;;;4.22;1.73;;;25.00;97.60;;;;;;4977551;28;20081;-75
2021/06/13 08:10:26;;;;;;;2.45;1.90;;;25.00;97.40;;;;;;4979241;28;20097;-75
2021/06/13 08:12:51;;;;;;;2.35;1.92;;;25.10;97.10;;;;;;4974107;28;20078;-74
2021/06/13 08:15:19;;;;;;;3.60;2.10;;;25.20;96.80;;;;;;4974486;28;20085;-75
2021/06/13 08:17:44;;;;;;;3.53;2.00;;;25.30;96.60;;;;;;4975259;28;20027;-75
2021/06/13 08:20:11;;;;;;;2.75;2.13;;;25.30;96.60;;;;;;4974958;28;20482;-74
2021/06/13 08:22:37;;;;;;;3.47;2.03;;;25.40;96.60;;;;;;4970277;28;20150;-75
2021/06/13 08:25:04;;;;;;;7.30;1.95;;;25.50;96.70;;;;;;4973536;28;20031;-75
2021/06/13 08:27:30;;;;;;;3.03;2.50;;;25.50;96.20;;;;;;4976794;28;20442;-75
2021/06/13 08:29:58;;;;;;;2.47;2.13;;;25.60;96.10;;;;;;4972034;28;20043;-75
2021/06/13 08:32:24;;;;;;;3.50;2.42;;;25.70;95.70;;;;;;4975775;28;20399;-75
2021/06/13 08:34:50;;;;;;;2.47;2.20;;;25.80;95.70;;;;;;4988770;28;20079;-81
2021/06/13 08:37:16;;;;;;;5.38;2.80;;;25.90;96.00;;;;;;4979053;28;20038;-81
2021/06/13 08:39:41;;;;;;;3.47;2.45;;;26.00;95.80;;;;;;4976481;28;20488;-81
2021/06/13 08:42:08;;;;;;;2.97;2.00;;;26.10;95.40;;;;;;4977283;28;20042;-81
2021/06/13 08:44:34;;;;;;;2.53;2.30;;;26.20;95.00;;;;;;4976074;28;20015;-81
2021/06/13 08:47:00;;;;;;;4.07;2.47;;;26.30;95.10;;;;;;4976562;28;20030;-81
2021/06/13 08:49:27;;;;;;;2.67;2.40;;;26.30;94.90;;;;;;4975550;28;20422;-81
2021/06/13 08:51:54;;;;;;;4.35;2.20;;;26.40;94.50;;;;;;4977410;28;20018;-81
2021/06/13 08:54:21;;;;;;;4.35;2.20;;;26.40;94.90;;;;;;4975880;28;20480;-81
2021/06/13 08:56:47;;;;;;;4.30;3.05;;;26.60;94.50;;;;;;4978113;28;20018;-81
2021/06/13 08:59:14;;;;;;;4.78;2.40;;;26.60;94.00;;;;;;4975400;28;20129;-81
2021/06/13 09:01:42;;;;;;;5.22;2.67;;;26.70;93.90;;;;;;4973474;28;20050;-81
2021/06/13 09:04:07;;;;;;;4.20;2.38;;;26.80;93.90;;;;;;4974204;28;20522;-81
2021/06/13 09:06:34;;;;;;;3.78;2.60;;;26.80;93.90;;;;;;4979249;28;20019;-81
2021/06/13 09:09:00;;;;;;;4.90;2.58;;;26.90;93.30;;;;;;4973500;28;20118;-81
2021/06/13 09:11:32;;;;;;;3.17;2.47;;;26.90;93.30;;;;;;4976100;28;20085;-81
2021/06/13 09:14:15;;;;;;;4.53;2.47;;;27.10;93.30;;;;;;4973472;28;20106;-81
2021/06/13 09:16:43;;;;;;;3.75;2.38;;;27.20;92.70;;;;;;4977124;28;20041;-82
2021/06/13 09:19:09;;;;;;;3.97;2.53;;;27.30;93.40;;;;;;4972369;28;20019;-81
2021/06/13 09:21:36;;;;;;;3.97;2.50;;;27.30;92.60;;;;;;4973959;28;20031;-81
2021/06/13 09:24:16;;;;;;;6.43;2.30;;;27.40;92.40;;;;;;4974126;28;20022;-81
2021/06/13 09:26:41;;;;;;;3.70;2.33;;;27.50;92.40;;;;;;4978056;28;20031;-81
2021/06/13 09:29:07;;;;;;;3.13;2.10;;;27.60;92.70;;;;;;4978397;28;20529;-82
2021/06/13 09:31:36;;;;;;;7.80;2.70;;;27.60;91.40;;;;;;4983473;28;20452;-83
2021/06/13 09:34:01;;;;;;;3.20;2.00;;;27.70;91.00;;;;;;4992534;28;20041;-83
2021/06/13 09:36:33;;;;;;;2.90;2.30;;;27.70;91.20;;;;;;4986393;28;20022;-83
2021/06/13 09:39:04;;;;;;;3.35;2.17;;;27.80;91.00;;;;;;4981281;28;20027;-83
2021/06/13 09:41:31;;;;;;;5.57;2.70;;;27.90;90.40;;;;;;4976244;28;20022;-83
2021/06/13 09:44:16;;;;;;;2.95;2.22;;;28.00;91.10;;;;;;4977294;28;20031;-83
2021/06/13 09:46:45;;;;;;;4.65;2.10;;;28.10;90.20;;;;;;4980216;28;20026;-83
2021/06/13 09:49:15;;;;;;;4.05;2.00;;;28.20;89.90;;;;;;4974765;28;20041;-83
2021/06/13 09:51:53;;;;;;;3.10;2.00;;;28.30;88.50;;;;;;4974166;28;20093;-83
2021/06/13 09:54:21;;;;;;;2.92;2.25;;;28.30;89.00;;;;;;4989425;28;20380;-83
2021/06/13 09:56:47;;;;;;;3.80;2.25;;;28.40;86.90;;;;;;4971089;28;20030;-83
2021/06/13 09:59:24;;;;;;;3.35;1.73;;;28.50;87.30;;;;;;4973644;28;20046;-83
2021/06/13 10:01:55;;;;;;;2.50;1.83;;;28.60;85.30;;;;;;4978838;28;20019;-83
2021/06/13 10:04:21;;;;;;;2.30;1.88;;;28.70;84.30;;;;;;4974302;28;20065;-81
2021/06/13 10:06:52;;;;;;;2.00;1.60;;;28.80;84.20;;;;;;4976110;28;20140;-82
2021/06/13 10:09:19;;;;;;;2.90;1.65;;;28.90;80.80;;;;;;4974414;28;20041;-82
2021/06/13 10:11:47;;;;;;;2.67;1.75;;;28.90;82.10;;;;;;4972605;28;20027;-81
2021/06/13 10:14:16;;;;;;;3.85;1.98;;;28.90;81.20;;;;;;4973310;28;20062;-81
2021/06/13 10:16:50;;;;;;;4.35;1.90;;;29.00;83.10;;;;;;4971346;28;20031;-82
2021/06/13 10:19:21;;;;;;;2.63;1.88;;;29.00;83.40;;;;;;4971782;28;20030;-81
2021/06/13 10:21:54;;;;;;;2.28;1.77;;;29.10;82.60;;;;;;4989316;28;20391;-81
2021/06/13 10:24:23;;;;;;;2.80;1.70;;;29.20;79.00;;;;;;4971644;28;20097;-81
2021/06/13 10:26:54;;;;;;;2.95;1.80;;;29.30;80.90;;;;;;4979652;28;20023;-81
2021/06/13 10:29:22;;;;;;;3.65;1.70;;;29.40;81.40;;;;;;4972330;28;20034;-81
2021/06/13 10:31:51;;;;;;;2.33;1.77;;;29.40;80.60;;;;;;4973719;28;20050;-81
2021/06/13 10:34:18;;;;;;;3.20;1.83;;;29.50;79.20;;;;;;4972377;28;20027;-80
2021/06/13 10:36:44;;;;;;;1.98;1.67;;;29.50;79.00;;;;;;4973107;28;20159;-81
2021/06/13 10:39:12;;;;;;;2.90;1.98;;;29.60;79.60;;;;;;4972762;28;20096;-81
2021/06/13 10:41:39;;;;;;;3.83;1.63;;;29.60;78.70;;;;;;4976370;28;20495;-80
2021/06/13 10:44:11;;;;;;;3.65;1.80;;;29.70;76.30;;;;;;4968005;28;20024;-80
2021/06/13 10:46:41;;;;;;;5.57;1.50;;;29.70;75.00;;;;;;4976994;28;20025;-80
2021/06/13 10:49:28;;;;;;;3.53;1.70;;;29.80;73.50;;;;;;4970726;28;20050;-80
2021/06/13 10:52:15;;;;;;;2.60;1.50;;;29.80;75.40;;;;;;4972716;28;20015;-81
2021/06/13 10:54:51;;;;;;;3.45;1.55;;;29.90;75.20;;;;;;4973902;28;20023;-80
2021/06/13 10:57:17;;;;;;;3.13;1.60;;;30.00;72.30;;;;;;4964458;28;20054;-80
2021/06/13 10:59:48;;;;;;;3.63;1.80;;;30.00;72.20;;;;;;4973815;28;20500;-82
2021/06/13 11:02:21;;;;;;;1.55;1.40;;;30.10;71.10;;;;;;4973505;28;20030;-80
2021/06/13 11:05:02;;;;;;;2.35;1.30;;;30.30;71.00;;;;;;4975244;28;20029;-91
2021/06/13 11:07:28;;;;;;;2.17;1.45;;;30.30;70.20;;;;;;4983491;28;20399;-92
2021/06/13 11:10:06;;;;;;;2.33;1.73;;;30.50;68.50;;;;;;4972129;28;20093;-80
2021/06/13 11:12:52;;;;;;;1.83;1.60;;;30.60;70.10;;;;;;4971244;28;20553;-81
2021/06/13 11:18:02;;;;;;;4.15;1.75;;;30.70;68.00;;;;;;4975432;28;20532;-80
2021/06/13 11:20:33;;;;;;;2.75;1.73;;;30.70;68.30;;;;;;4971554;28;20034;-80
2021/06/13 11:23:12;;;;;;;1.77;1.60;;;30.80;67.00;;;;;;4969875;28;20031;-81
2021/06/13 11:25:40;;;;;;;3.13;1.55;;;30.80;68.30;;;;;;4967716;28;20022;-80
2021/06/13 11:28:22;;;;;;;2.35;1.95;;;30.90;67.80;;;;;;4971011;28;20023;-81
2021/06/13 11:30:54;;;;;;;2.45;1.73;;;31.10;66.70;;;;;;4980932;28;20038;-81
2021/06/13 11:33:42;;;;;;;3.28;2.90;;;31.10;66.80;;;;;;4973097;28;20027;-80
2021/06/13 11:38:45;;;;;;;2.85;1.77;;;31.50;67.00;;;;;;4970639;28;20114;-81
2021/06/13 11:41:30;;;;;;;2.38;1.85;;;31.50;66.50;;;;;;4978269;28;20035;-80
2021/06/13 11:43:57;;;;;;;2.88;1.70;;;31.70;66.40;;;;;;4969297;28;20026;-80
2021/06/13 11:46:31;;;;;;;2.22;1.60;;;31.70;65.60;;;;;;4960506;28;20023;-81
2021/06/13 11:48:57;;;;;;;3.55;1.70;;;31.80;66.60;;;;;;4979373;28;20117;-80
2021/06/13 11:51:23;;;;;;;2.83;1.70;;;31.90;65.90;;;;;;4975560;28;20062;-88
2021/06/13 11:53:57;;;;;;;3.28;1.90;;;32.00;64.30;;;;;;4971168;28;20031;-80
2021/06/13 11:56:44;;;;;;;2.85;1.77;;;32.10;63.50;;;;;;4973310;28;20037;-80
2021/06/13 11:59:21;;;;;;;1.90;1.45;;;32.10;63.00;;;;;;4986234;28;20423;-80
2021/06/13 12:01:57;;;;;;;2.70;1.75;;;32.20;62.30;;;;;;4960016;28;20070;-93
2021/06/13 12:04:25;;;;;;;3.17;2.88;;;32.30;62.00;;;;;;4969312;28;20037;-80
2021/06/13 12:06:51;;;;;;;2.28;1.90;;;32.50;63.10;;;;;;4981704;28;20030;-81
2021/06/13 12:09:19;;;;;;;2.75;2.10;;;32.60;61.70;;;;;;4979915;28;20041;-81
2021/06/13 12:11:55;;;;;;;3.58;1.92;;;32.70;60.60;;;;;;4976489;28;20061;-80
2021/06/13 12:14:38;;;;;;;2.15;1.70;;;32.70;62.30;;;;;;4973147;28;20031;-82
2021/06/13 12:17:13;;;;;;;2.83;1.90;;;32.90;61.60;;;;;;4980645;28;20089;-82
2021/06/13 12:19:50;;;;;;;3.00;1.90;;;33.00;60.50;;;;;;4977462;28;20030;-82
2021/06/13 12:22:45;;;;;;;2.72;1.70;;;33.20;60.80;;;;;;4999591;28;20034;-82
2021/06/13 12:27:48;;;;;;;2.47;1.77;;;33.30;58.90;;;;;;4978533;28;20414;-82
2021/06/13 12:30:25;;;;;;;2.72;1.63;;;33.40;58.10;;;;;;4973015;28;20412;-81
2021/06/13 12:33:03;;;;;;;2.63;1.55;;;33.50;59.60;;;;;;4982449;28;20015;-81
2021/06/13 12:35:34;;;;;;;4.80;1.90;;;33.70;58.80;;;;;;4977733;28;20114;-81
2021/06/13 12:38:12;;;;;;;3.13;1.85;;;34.00;56.10;;;;;;4976187;28;20027;-81
2021/06/13 12:40:47;;;;;;;3.53;1.65;;;34.20;57.20;;;;;;4975393;28;20042;-82
2021/06/13 12:43:15;;;;;;;1.92;1.55;;;34.50;55.70;;;;;;4973179;28;20082;-89
2021/06/13 12:45:42;;;;;;;4.28;1.55;;;34.70;54.30;;;;;;4976318;28;20041;-82
2021/06/13 12:48:10;;;;;;;2.90;1.52;;;34.70;54.60;;;;;;4977360;28;20027;-82
2021/06/13 12:50:38;;;;;;;4.50;1.48;;;34.90;54.70;;;;;;4977501;28;20407;-82
2021/06/13 12:53:07;;;;;;;2.40;1.60;;;35.00;53.20;;;;;;4973190;28;20034;-82
2021/06/13 12:55:44;;;;;;;2.40;1.67;;;34.90;52.30;;;;;;4977394;28;20383;-93
2021/06/13 12:58:15;;;;;;;2.72;1.70;;;35.10;52.30;;;;;;4980024;28;20047;-93
2021/06/13 13:00:42;;;;;;;4.25;1.83;;;35.20;51.60;;;;;;4981660;28;20514;-87
2021/06/13 13:03:12;;;;;;;2.80;1.60;;;35.50;52.20;;;;;;4983094;28;20047;-82